Terminal Aerodrome Forecast
Issued by NWS

Home | Current Version | Previous Version | Text Only | Print | Product List | Glossary On
Versions: 1 2 3 4 5 6 7 8 9 10 11 12 13 14 15 16 17 18 19 20 21 22
001
FTUS43 KBIS 112323
TAFDIK
TAF
KDIK 112323Z 1200/1224 31010KT P6SM BKN022 OVC029
     FM120300 29007KT P6SM BKN035
     FM120400 28007KT P6SM SCT070
     FM121700 27011KT P6SM FEW250=

USA.gov is the U.S. government's official web portal to all federal, state and local government web resources and services.